Time;durP1;ratioP1;P1;durP2;ratioP2;P2;SDS_P1;SDS_P2;PMS_P1;PMS_P2;Temp;Humidity;BMP_temperature;BMP_pressure;BME280_temperature;BME280_humidity;BME280_pressure;Samples;Min_cycle;Max_cycle;Signal;HPM_P1;HPM_P2
2023/12/26 08:34:37;;;;;;;1999.90;999.90;;;10.20;99.90;;;;;;6284709;22;884762;-75
2023/12/26 08:37:03;;;;;;;1999.90;999.90;;;10.20;99.90;;;;;;6309093;22;20094;-76
2023/12/26 08:39:28;;;;;;;1999.90;999.90;;;10.20;99.90;;;;;;6260413;22;1215963;-77
2023/12/26 08:41:54;;;;;;;1999.90;999.90;;;10.20;99.90;;;;;;6286379;22;20095;-77
2023/12/26 08:44:19;;;;;;;1999.90;999.90;;;10.10;99.90;;;;;;6262966;22;21727;-75
2023/12/26 08:46:45;;;;;;;1999.90;999.90;;;10.10;99.90;;;;;;6283450;22;20490;-76
2023/12/26 08:49:10;;;;;;;1999.90;999.90;;;10.20;99.90;;;;;;6282728;22;19996;-74
2023/12/26 08:51:39;;;;;;;1999.90;999.90;;;10.20;99.90;;;;;;6282684;22;20020;-76
2023/12/26 08:54:05;;;;;;;1999.90;999.90;;;10.10;99.90;;;;;;6283835;22;20007;-77
2023/12/26 08:56:30;;;;;;;1999.90;999.90;;;10.10;99.90;;;;;;6283636;22;20019;-77
2023/12/26 08:58:56;;;;;;;1999.90;999.90;;;10.10;99.90;;;;;;6281974;22;20004;-77
2023/12/26 09:01:21;;;;;;;1999.90;999.90;;;10.10;99.90;;;;;;6281990;22;20472;-76
2023/12/26 09:03:48;;;;;;;1999.90;999.90;;;10.10;99.90;;;;;;6253758;22;20012;-76
2023/12/26 09:06:13;;;;;;;1999.90;999.90;;;10.10;99.90;;;;;;6255721;22;20447;-76
2023/12/26 09:08:39;;;;;;;1999.90;999.90;;;10.20;99.90;;;;;;6254911;22;20008;-75
2023/12/26 09:11:04;;;;;;;1999.90;999.90;;;10.20;99.90;;;;;;6282750;22;20114;-75
2023/12/26 09:13:30;;;;;;;1999.90;999.90;;;10.30;99.90;;;;;;6282781;22;20004;-77
2023/12/26 09:15:58;;;;;;;1999.90;999.90;;;10.30;99.90;;;;;;6254095;22;20030;-80
2023/12/26 09:18:23;;;;;;;1999.90;999.90;;;10.30;99.90;;;;;;6281600;22;20058;-77
2023/12/26 09:20:49;;;;;;;1999.90;999.90;;;10.30;99.90;;;;;;6282959;22;20081;-76
2023/12/26 09:23:15;;;;;;;1999.90;999.90;;;10.40;99.90;;;;;;6255442;22;20000;-81
2023/12/26 09:25:40;;;;;;;1999.90;999.90;;;10.40;99.90;;;;;;6255685;22;20008;-76
2023/12/26 09:28:08;;;;;;;1999.90;999.90;;;10.40;99.90;;;;;;6255407;22;20495;-77
2023/12/26 09:30:34;;;;;;;1999.90;999.90;;;10.40;99.90;;;;;;6283673;22;20017;-77
2023/12/26 09:32:59;;;;;;;1999.90;999.90;;;10.40;99.90;;;;;;6283022;22;20000;-78
2023/12/26 09:35:25;;;;;;;1999.90;999.90;;;10.30;99.90;;;;;;6256144;22;20317;-81
2023/12/26 09:37:50;;;;;;;1999.90;999.90;;;10.40;99.90;;;;;;6256309;22;20499;-77
2023/12/26 09:40:18;;;;;;;1999.90;999.90;;;10.30;99.90;;;;;;6257116;22;20016;-78
2023/12/26 09:42:43;;;;;;;1999.90;999.90;;;10.40;99.90;;;;;;6282854;22;20001;-77
2023/12/26 09:45:11;;;;;;;1999.90;999.90;;;10.40;99.90;;;;;;6255884;22;20012;-77
2023/12/26 09:47:40;;;;;;;1999.90;999.90;;;10.40;99.90;;;;;;6255832;22;20008;-77
2023/12/26 09:50:06;;;;;;;1999.90;999.90;;;10.40;99.90;;;;;;6283369;22;20440;-77
2023/12/26 09:52:32;;;;;;;1999.90;999.90;;;10.30;99.90;;;;;;6283119;22;20003;-77
2023/12/26 09:54:58;;;;;;;1999.90;999.90;;;10.30;99.90;;;;;;6253516;22;20019;-77
2023/12/26 09:57:23;;;;;;;1999.90;999.90;;;10.30;99.90;;;;;;6283872;22;20074;-77
2023/12/26 09:59:51;;;;;;;1999.90;999.90;;;10.30;99.90;;;;;;6283081;22;20424;-82
2023/12/26 10:02:16;;;;;;;1999.90;999.90;;;10.30;99.90;;;;;;6283946;22;20015;-79
2023/12/26 10:04:42;;;;;;;1999.90;999.90;;;10.30;99.90;;;;;;6282988;22;20007;-79
2023/12/26 10:07:09;;;;;;;1999.90;999.90;;;10.30;99.90;;;;;;6284368;22;20015;-77
2023/12/26 10:09:35;;;;;;;1999.90;999.90;;;10.20;99.90;;;;;;6283434;22;20008;-78
2023/12/26 10:12:00;;;;;;;1999.90;999.90;;;10.30;99.90;;;;;;6255436;22;20012;-77
2023/12/26 10:14:28;;;;;;;1999.90;999.90;;;10.40;99.90;;;;;;6283634;22;20008;-78
2023/12/26 10:16:55;;;;;;;1999.90;999.90;;;10.50;99.90;;;;;;6284066;22;20015;-77
2023/12/26 10:19:21;;;;;;;1999.90;999.90;;;10.40;99.90;;;;;;6282642;22;20009;-76
2023/12/26 10:21:47;;;;;;;1999.90;999.90;;;10.50;99.90;;;;;;6282671;22;20019;-77
2023/12/26 10:24:12;;;;;;;1999.90;999.90;;;10.50;99.90;;;;;;6282172;22;20008;-77
2023/12/26 10:26:38;;;;;;;1999.90;999.90;;;10.50;99.90;;;;;;6288635;22;20012;-76
2023/12/26 10:29:04;;;;;;;1999.90;999.90;;;10.50;99.90;;;;;;6288178;22;20419;-76
2023/12/26 10:31:29;;;;;;;1999.90;999.90;;;10.50;99.90;;;;;;6282245;22;20492;-76
2023/12/26 10:33:55;;;;;;;1999.90;999.90;;;10.50;99.90;;;;;;6281937;22;20036;-76
2023/12/26 10:36:20;;;;;;;1999.90;999.90;;;10.40;99.90;;;;;;6282422;22;20432;-75
2023/12/26 10:38:46;;;;;;;1999.90;999.90;;;10.50;99.90;;;;;;6283070;22;20318;-76
2023/12/26 10:41:24;;;;;;;1999.90;999.90;;;10.40;99.90;;;;;;6256612;22;20008;-76
2023/12/26 10:43:52;;;;;;;1999.90;999.90;;;10.30;99.90;;;;;;6283101;22;20000;-75
2023/12/26 10:46:18;;;;;;;1999.90;999.90;;;10.30;99.90;;;;;;6283882;22;20008;-75
2023/12/26 10:48:47;;;;;;;1999.90;999.90;;;10.20;99.90;;;;;;6283959;22;20087;-77
2023/12/26 10:51:15;;;;;;;1999.90;999.90;;;10.30;99.90;;;;;;6284106;22;20020;-76
2023/12/26 10:53:56;;;;;;;1999.90;999.90;;;10.30;99.90;;;;;;6283637;22;20391;-76
2023/12/26 10:56:23;;;;;;;1999.90;999.90;;;10.30;99.90;;;;;;6284117;22;20004;-76
2023/12/26 10:58:52;;;;;;;1999.90;999.90;;;10.30;99.90;;;;;;6284280;22;20444;-76
2023/12/26 11:01:17;;;;;;;1999.90;999.90;;;10.20;99.90;;;;;;6256455;22;20016;-75
2023/12/26 11:03:43;;;;;;;1999.90;999.90;;;10.20;99.90;;;;;;6283671;22;20071;-76
2023/12/26 11:06:08;;;;;;;1999.90;999.90;;;10.30;99.90;;;;;;6284010;22;20450;-75
2023/12/26 11:08:34;;;;;;;1999.90;999.90;;;10.30;99.90;;;;;;6284009;22;20058;-76
2023/12/26 11:11:00;;;;;;;1999.90;999.90;;;10.30;99.90;;;;;;6284059;22;20008;-76
2023/12/26 11:13:25;;;;;;;1999.90;999.90;;;10.30;99.90;;;;;;6283609;22;20074;-76
2023/12/26 11:15:52;;;;;;;1999.90;999.90;;;10.20;99.90;;;;;;6284499;22;20008;-76
2023/12/26 11:18:20;;;;;;;1999.90;999.90;;;10.20;99.90;;;;;;6284397;22;20008;-76
2023/12/26 11:20:46;;;;;;;1999.90;999.90;;;10.20;99.90;;;;;;6284179;22;20448;-76
2023/12/26 11:23:12;;;;;;;1999.90;999.90;;;10.10;99.90;;;;;;6283549;22;20092;-76
2023/12/26 11:25:37;;;;;;;1999.90;999.90;;;10.10;99.90;;;;;;6284252;22;20047;-76
2023/12/26 11:28:03;;;;;;;1999.90;999.90;;;10.10;99.90;;;;;;6284148;22;20066;-76
2023/12/26 11:30:29;;;;;;;1999.90;999.90;;;10.10;99.90;;;;;;6283722;22;20062;-75
2023/12/26 11:32:55;;;;;;;1999.90;999.90;;;10.10;99.90;;;;;;6283809;22;20008;-76
2023/12/26 11:35:21;;;;;;;1999.90;999.90;;;10.10;99.90;;;;;;6284064;22;20004;-76
2023/12/26 11:37:49;;;;;;;1999.90;999.90;;;10.20;99.90;;;;;;6283565;22;20014;-75
2023/12/26 11:40:15;;;;;;;1999.90;999.90;;;10.20;99.90;;;;;;6283879;22;20004;-76
2023/12/26 11:42:41;;;;;;;1999.90;999.90;;;10.30;99.90;;;;;;6283575;22;20008;-76
2023/12/26 11:45:06;;;;;;;1999.90;999.90;;;10.40;99.90;;;;;;6283903;22;20008;-76
2023/12/26 11:47:32;;;;;;;1999.90;999.90;;;10.40;99.90;;;;;;6284186;22;20356;-76
2023/12/26 11:49:58;;;;;;;1999.90;999.90;;;10.50;99.90;;;;;;6256635;22;20082;-76
2023/12/26 11:52:23;;;;;;;1999.90;999.90;;;10.40;99.90;;;;;;6284168;22;20070;-76
2023/12/26 11:54:49;;;;;;;1999.90;999.90;;;10.30;99.90;;;;;;6256262;22;20035;-76
2023/12/26 11:57:14;;;;;;;1999.90;999.90;;;10.30;99.90;;;;;;6284113;22;20455;-76
2023/12/26 11:59:40;;;;;;;1999.90;999.90;;;10.30;99.90;;;;;;6283909;22;20008;-76
2023/12/26 12:02:06;;;;;;;1999.90;999.90;;;10.40;99.90;;;;;;6256927;22;20011;-76
2023/12/26 12:04:31;;;;;;;1999.90;999.90;;;10.40;99.90;;;;;;6256315;22;20008;-76
2023/12/26 12:07:11;;;;;;;1999.90;999.90;;;10.40;99.90;;;;;;6256855;22;20068;-75
2023/12/26 12:09:37;;;;;;;1999.90;999.90;;;10.40;99.90;;;;;;6284175;22;20390;-75
2023/12/26 12:12:03;;;;;;;1999.90;999.90;;;10.30;99.90;;;;;;6283860;22;20082;-75
2023/12/26 12:14:28;;;;;;;1999.90;999.90;;;10.30;99.90;;;;;;6283347;22;20035;-75
2023/12/26 12:16:54;;;;;;;1999.90;999.90;;;10.30;99.90;;;;;;6284010;22;20439;-75
2023/12/26 12:19:20;;;;;;;1999.90;999.90;;;10.20;99.90;;;;;;6284086;22;20004;-75
2023/12/26 12:21:45;;;;;;;1999.90;999.90;;;10.30;99.90;;;;;;6284172;22;20351;-75
2023/12/26 12:24:18;;;;;;;1999.90;999.90;;;10.30;99.90;;;;;;6283370;22;20459;-75
2023/12/26 12:27:05;;;;;;;1999.90;999.90;;;10.20;99.90;;;;;;6284587;22;20094;-75
2023/12/26 12:29:56;;;;;;;1999.90;999.90;;;10.30;99.90;;;;;;6284062;22;20449;-75
2023/12/26 12:32:22;;;;;;;1999.90;999.90;;;10.30;99.90;;;;;;6284151;22;20049;-76
2023/12/26 12:35:10;;;;;;;1999.90;999.90;;;10.30;99.90;;;;;;6283942;22;20019;-76
2023/12/26 12:37:36;;;;;;;1999.90;999.90;;;10.30;99.90;;;;;;6297115;22;20020;-76
2023/12/26 12:40:04;;;;;;;1999.90;999.90;;;10.30;99.90;;;;;;6293135;22;20098;-76
2023/12/26 12:42:32;;;;;;;1999.90;999.90;;;10.30;99.90;;;;;;6283777;22;20032;-76
2023/12/26 12:44:58;;;;;;;1999.90;999.90;;;10.20;99.90;;;;;;6283157;22;20008;-75
2023/12/26 12:47:24;;;;;;;1999.90;999.90;;;10.20;99.90;;;;;;6283551;22;20329;-76
2023/12/26 12:49:50;;;;;;;1999.90;999.90;;;10.20;99.90;;;;;;6283444;22;20008;-76
2023/12/26 12:52:15;;;;;;;1999.90;999.90;;;10.20;99.90;;;;;;6283501;22;20345;-75
2023/12/26 12:54:41;;;;;;;1999.90;999.90;;;10.10;99.90;;;;;;6283328;22;20004;-75
2023/12/26 12:57:06;;;;;;;1999.90;999.90;;;10.10;99.90;;;;;;6284063;22;20108;-76
2023/12/26 12:59:32;;;;;;;1999.90;999.90;;;10.10;99.90;;;;;;6256139;22;20338;-75
2023/12/26 13:01:58;;;;;;;1999.90;999.90;;;10.10;99.90;;;;;;6283339;22;20325;-76
2023/12/26 13:04:23;;;;;;;1999.90;999.90;;;10.10;99.90;;;;;;6282883;22;20000;-75
2023/12/26 13:06:49;;;;;;;1999.90;999.90;;;10.10;99.90;;;;;;6283345;22;20020;-75
2023/12/26 13:09:15;;;;;;;1999.90;999.90;;;10.10;99.90;;;;;;6283464;22;20004;-75
2023/12/26 13:11:40;;;;;;;1999.90;999.90;;;10.00;99.90;;;;;;6283653;22;20012;-76
2023/12/26 13:14:06;;;;;;;1999.90;999.90;;;10.10;99.90;;;;;;6282931;22;20050;-76
2023/12/26 13:16:32;;;;;;;1999.90;999.90;;;10.10;99.90;;;;;;6283504;22;20343;-75
2023/12/26 13:18:57;;;;;;;1999.90;999.90;;;10.10;99.90;;;;;;6283323;22;20515;-75
2023/12/26 13:21:23;;;;;;;1999.90;999.90;;;10.10;99.90;;;;;;6283572;22;20012;-75
2023/12/26 13:23:48;;;;;;;1999.90;999.90;;;10.10;99.90;;;;;;6282776;22;20004;-76
2023/12/26 13:26:14;;;;;;;1999.90;999.90;;;10.10;99.90;;;;;;6283218;22;20018;-75
2023/12/26 13:28:40;;;;;;;1999.90;999.90;;;10.10;99.90;;;;;;6284399;22;20012;-75
2023/12/26 13:31:05;;;;;;;1999.90;999.90;;;10.20;99.90;;;;;;6283408;22;20008;-76
2023/12/26 13:33:34;;;;;;;1999.90;999.90;;;10.20;99.90;;;;;;6283330;22;20008;-75
2023/12/26 13:36:01;;;;;;;1999.90;999.90;;;10.20;99.90;;;;;;6284181;22;20089;-77
2023/12/26 13:38:26;;;;;;;1999.90;999.90;;;10.40;99.90;;;;;;6285351;22;20011;-75
2023/12/26 13:40:52;;;;;;;1999.90;999.90;;;10.50;99.90;;;;;;6283710;22;20456;-77
2023/12/26 13:43:17;;;;;;;1999.90;999.90;;;10.40;99.90;;;;;;6258063;22;20004;-75
2023/12/26 13:45:43;;;;;;;1999.90;999.90;;;10.30;99.90;;;;;;6283376;22;20441;-75
2023/12/26 13:48:08;;;;;;;1999.90;999.90;;;10.30;99.90;;;;;;6255828;22;20036;-76
2023/12/26 13:50:34;;;;;;;1999.90;999.90;;;10.20;99.90;;;;;;6283174;22;20087;-75
2023/12/26 13:52:59;;;;;;;1999.90;999.90;;;10.20;99.90;;;;;;6282330;22;20380;-75
2023/12/26 13:55:25;;;;;;;1999.90;999.90;;;10.10;99.90;;;;;;6283054;22;20484;-76
2023/12/26 13:57:50;;;;;;;1999.90;999.90;;;10.10;99.90;;;;;;6282744;22;20067;-75
2023/12/26 14:00:16;;;;;;;1999.90;999.90;;;10.00;99.90;;;;;;6283053;22;20004;-75
2023/12/26 14:02:41;;;;;;;1999.90;999.90;;;10.00;99.90;;;;;;6255704;22;20079;-75
2023/12/26 14:05:07;;;;;;;1999.90;999.90;;;10.00;99.90;;;;;;6283210;22;20008;-77
2023/12/26 14:07:33;;;;;;;1999.90;999.90;;;10.10;99.90;;;;;;6283831;22;20023;-76
2023/12/26 14:09:59;;;;;;;1999.90;999.90;;;10.00;99.90;;;;;;6282948;22;20004;-76
2023/12/26 14:12:25;;;;;;;1999.90;999.90;;;10.00;99.90;;;;;;6255978;22;20004;-77
2023/12/26 14:14:51;;;;;;;1999.90;999.90;;;10.00;99.90;;;;;;6256950;22;20008;-76
2023/12/26 14:17:16;;;;;;;1999.90;999.90;;;10.00;99.90;;;;;;6284679;22;20327;-76
2023/12/26 14:19:43;;;;;;;1999.90;999.90;;;10.00;99.90;;;;;;6257085;22;20011;-77
2023/12/26 14:22:08;;;;;;;1999.90;999.90;;;9.90;99.90;;;;;;6257835;22;20469;-76
2023/12/26 14:24:34;;;;;;;1999.90;999.90;;;9.90;99.90;;;;;;6283733;22;20076;-76
2023/12/26 14:27:02;;;;;;;1999.90;999.90;;;9.90;99.90;;;;;;6284395;22;20012;-77
2023/12/26 14:29:28;;;;;;;1999.90;999.90;;;9.90;99.90;;;;;;6284254;22;20027;-76
2023/12/26 14:31:54;;;;;;;1999.90;999.90;;;9.90;99.90;;;;;;6284590;22;20019;-76
2023/12/26 14:34:20;;;;;;;1999.90;999.90;;;9.90;99.90;;;;;;6282945;22;20040;-76
2023/12/26 14:36:45;;;;;;;1999.90;999.90;;;9.80;99.90;;;;;;6284374;22;20012;-77
2023/12/26 14:39:12;;;;;;;1999.90;999.90;;;9.80;99.90;;;;;;6283947;22;20352;-76
2023/12/26 14:41:38;;;;;;;1999.90;999.90;;;9.80;99.90;;;;;;6284537;22;20008;-77
2023/12/26 14:44:03;;;;;;;1999.90;999.90;;;9.80;99.90;;;;;;6283147;22;20004;-76
2023/12/26 14:46:29;;;;;;;1999.90;999.90;;;9.70;99.90;;;;;;6285663;22;20004;-76
2023/12/26 14:48:54;;;;;;;1999.90;999.90;;;9.70;99.90;;;;;;6299466;22;20005;-76
2023/12/26 14:51:20;;;;;;;1999.90;999.90;;;9.70;99.90;;;;;;6287972;22;20019;-77
2023/12/26 14:53:46;;;;;;;1999.90;999.90;;;9.70;99.90;;;;;;6284345;22;20091;-77
2023/12/26 14:56:12;;;;;;;1999.90;999.90;;;9.70;99.90;;;;;;6284534;22;20023;-76
2023/12/26 14:58:37;;;;;;;1999.90;999.90;;;9.70;99.90;;;;;;6284439;22;20015;-77
2023/12/26 15:01:03;;;;;;;1999.90;999.90;;;9.70;99.90;;;;;;6284151;22;20083;-76
2023/12/26 15:03:29;;;;;;;1999.90;999.90;;;9.70;99.90;;;;;;6283637;22;20012;-77
2023/12/26 15:05:55;;;;;;;1999.90;999.90;;;9.70;99.90;;;;;;6256702;22;20031;-76
2023/12/26 15:08:20;;;;;;;1999.90;999.90;;;9.70;99.90;;;;;;6256807;22;20035;-76
2023/12/26 15:10:46;;;;;;;1999.90;999.90;;;9.70;99.90;;;;;;6284289;22;20012;-77
2023/12/26 15:13:11;;;;;;;1999.90;999.90;;;9.60;99.90;;;;;;6283770;22;20004;-76
2023/12/26 15:15:37;;;;;;;1999.90;999.90;;;9.60;99.90;;;;;;6284106;22;20147;-76
2023/12/26 15:18:03;;;;;;;1999.90;999.90;;;9.60;99.90;;;;;;6284075;22;20523;-77
2023/12/26 15:20:28;;;;;;;1999.90;999.90;;;9.60;99.90;;;;;;6284189;22;20444;-76
2023/12/26 15:22:54;;;;;;;1999.90;999.90;;;9.60;99.90;;;;;;6256052;22;20019;-76
2023/12/26 15:25:19;;;;;;;1999.90;999.90;;;9.50;99.90;;;;;;6283705;22;20063;-76
2023/12/26 15:27:48;;;;;;;1999.90;999.90;;;9.50;99.90;;;;;;6284267;22;20005;-77
2023/12/26 15:30:14;;;;;;;1999.90;999.90;;;9.50;99.90;;;;;;6283995;22;20012;-76
2023/12/26 15:32:39;;;;;;;1999.90;999.90;;;9.50;99.90;;;;;;6283482;22;20008;-76
2023/12/26 15:35:05;;;;;;;1999.90;999.90;;;9.50;99.90;;;;;;6284132;22;20011;-76
2023/12/26 15:37:32;;;;;;;1999.90;999.90;;;9.40;99.90;;;;;;6283571;22;20039;-76
2023/12/26 15:39:57;;;;;;;1999.90;999.90;;;9.40;99.90;;;;;;6284082;22;20066;-76
2023/12/26 15:42:23;;;;;;;1999.90;999.90;;;9.30;99.90;;;;;;6283791;22;20509;-76
2023/12/26 15:44:48;;;;;;;1999.90;999.90;;;9.30;99.90;;;;;;6283379;22;20046;-76
2023/12/26 15:47:14;;;;;;;1999.90;999.90;;;9.20;99.90;;;;;;6283979;22;20060;-76
2023/12/26 15:49:39;;;;;;;1999.90;999.90;;;9.20;99.90;;;;;;6283974;22;20000;-77
2023/12/26 15:52:05;;;;;;;1999.90;999.90;;;9.10;99.90;;;;;;6283726;22;20012;-77
2023/12/26 15:54:31;;;;;;;1999.90;999.90;;;9.00;99.90;;;;;;6283399;22;20031;-76
2023/12/26 15:56:56;;;;;;;1999.90;999.90;;;8.90;99.90;;;;;;6256476;22;20008;-76
2023/12/26 15:59:22;;;;;;;1999.90;999.90;;;8.90;99.90;;;;;;6283823;22;20000;-76
2023/12/26 16:01:47;;;;;;;1999.90;999.90;;;8.80;99.90;;;;;;6283650;22;20439;-76
2023/12/26 16:04:14;;;;;;;1999.90;999.90;;;8.70;99.90;;;;;;6282985;22;20052;-76
2023/12/26 16:06:42;;;;;;;1999.90;999.90;;;8.60;99.90;;;;;;6283614;22;20451;-76
2023/12/26 16:09:08;;;;;;;1999.90;999.90;;;8.60;99.90;;;;;;6284016;22;20702;-76
2023/12/26 16:11:35;;;;;;;1999.90;999.90;;;8.60;99.90;;;;;;6283546;22;20076;-76
2023/12/26 16:14:01;;;;;;;1999.90;999.90;;;8.50;99.90;;;;;;6283101;22;20368;-76
2023/12/26 16:16:27;;;;;;;1999.90;999.90;;;8.50;99.90;;;;;;6283702;22;20424;-77
2023/12/26 16:18:52;;;;;;;1999.90;999.90;;;8.50;99.90;;;;;;6283765;22;20079;-76
2023/12/26 16:21:20;;;;;;;1999.90;999.90;;;8.40;99.90;;;;;;6283523;22;20031;-76
2023/12/26 16:23:46;;;;;;;1999.90;999.90;;;8.50;99.90;;;;;;6283238;22;20000;-76
2023/12/26 16:26:12;;;;;;;1999.90;999.90;;;8.40;99.90;;;;;;6256318;22;20012;-76
2023/12/26 16:28:38;;;;;;;1999.90;999.90;;;8.40;99.90;;;;;;6283661;22;20788;-76
2023/12/26 16:31:04;;;;;;;1999.90;999.90;;;8.40;99.90;;;;;;6283637;22;20066;-76
2023/12/26 16:33:30;;;;;;;1999.90;999.90;;;8.40;99.90;;;;;;6282786;22;20428;-76
2023/12/26 16:35:56;;;;;;;1999.90;999.90;;;8.40;99.90;;;;;;6283079;22;20083;-76
2023/12/26 16:38:23;;;;;;;1999.90;999.90;;;8.40;99.90;;;;;;6283066;22;20373;-76
2023/12/26 16:40:49;;;;;;;1999.90;999.90;;;8.30;99.90;;;;;;6284441;22;20717;-76
2023/12/26 16:43:14;;;;;;;1999.90;999.90;;;8.30;99.90;;;;;;6283987;22;20007;-76
2023/12/26 16:45:40;;;;;;;1999.90;999.90;;;8.40;99.90;;;;;;6284603;22;20055;-76
2023/12/26 16:48:07;;;;;;;1999.90;999.90;;;8.30;99.90;;;;;;6258439;22;20075;-76
2023/12/26 16:50:33;;;;;;;1999.90;999.90;;;8.30;99.90;;;;;;6308635;22;19990;-75
2023/12/26 16:52:59;;;;;;;1999.90;999.90;;;8.30;99.90;;;;;;6289865;22;20011;-76
2023/12/26 16:55:25;;;;;;;1999.90;999.90;;;8.30;99.90;;;;;;6283415;22;20066;-76
2023/12/26 16:57:50;;;;;;;1999.90;999.90;;;8.20;99.90;;;;;;6283325;22;20015;-76
2023/12/26 17:00:16;;;;;;;1999.90;999.90;;;8.10;99.90;;;;;;6283286;22;20012;-76
2023/12/26 17:02:41;;;;;;;1999.90;999.90;;;8.10;99.90;;;;;;6282720;22;20010;-76
2023/12/26 17:05:07;;;;;;;1999.90;999.90;;;8.20;99.90;;;;;;6283297;22;20451;-76
2023/12/26 17:07:36;;;;;;;1999.90;999.90;;;8.10;99.90;;;;;;6283549;22;20027;-76
2023/12/26 17:10:02;;;;;;;1999.90;999.90;;;8.10;99.90;;;;;;6255852;22;20023;-76
2023/12/26 17:12:28;;;;;;;1999.90;999.90;;;8.00;99.90;;;;;;6283837;22;20066;-76
2023/12/26 17:14:53;;;;;;;1999.90;999.90;;;8.00;99.90;;;;;;6284891;22;20043;-76
2023/12/26 17:17:19;;;;;;;1999.90;999.90;;;8.10;99.90;;;;;;6284653;22;20007;-76
2023/12/26 17:19:44;;;;;;;1999.90;999.90;;;8.10;99.90;;;;;;6285293;22;20010;-76
2023/12/26 17:22:10;;;;;;;1999.90;999.90;;;8.10;99.90;;;;;;6259002;22;20083;-76
2023/12/26 17:24:37;;;;;;;1999.90;999.90;;;8.10;99.90;;;;;;6283924;22;20000;-76
2023/12/26 17:27:03;;;;;;;1999.90;999.90;;;8.20;99.90;;;;;;6285392;22;20004;-76
2023/12/26 17:29:28;;;;;;;1999.90;999.90;;;8.20;99.90;;;;;;6283941;22;20436;-76
2023/12/26 17:31:55;;;;;;;1999.90;999.90;;;8.30;99.90;;;;;;6285264;22;20103;-76
2023/12/26 17:34:21;;;;;;;1999.90;999.90;;;8.30;99.90;;;;;;6282896;22;20016;-76
2023/12/26 17:36:48;;;;;;;1999.90;999.90;;;8.30;99.90;;;;;;6285843;22;20004;-76
2023/12/26 17:39:15;;;;;;;1999.90;999.90;;;8.30;99.90;;;;;;6284943;22;20102;-77
2023/12/26 17:41:40;;;;;;;1999.90;999.90;;;8.40;99.90;;;;;;6285570;22;20363;-76
2023/12/26 17:44:06;;;;;;;1999.90;999.90;;;8.40;99.90;;;;;;6285022;22;20059;-76
2023/12/26 17:46:32;;;;;;;1999.90;999.90;;;8.40;99.90;;;;;;6256176;22;20008;-76
2023/12/26 17:48:57;;;;;;;1999.90;999.90;;;8.40;99.90;;;;;;6285652;22;20020;-76
2023/12/26 17:51:23;;;;;;;1999.90;999.90;;;8.40;99.90;;;;;;6286686;22;20467;-76
2023/12/26 17:53:49;;;;;;;1999.90;999.90;;;8.30;99.90;;;;;;6286731;22;20015;-77
2023/12/26 17:56:19;;;;;;;1999.90;999.90;;;8.40;99.90;;;;;;6259146;22;20019;-76
2023/12/26 17:58:45;;;;;;;1999.90;999.90;;;8.30;99.90;;;;;;6286143;22;20031;-77
2023/12/26 18:01:11;;;;;;;1999.90;999.90;;;8.40;99.90;;;;;;6286025;22;20058;-76
2023/12/26 18:03:36;;;;;;;1999.90;999.90;;;8.50;99.90;;;;;;6284291;22;20008;-76
2023/12/26 18:06:02;;;;;;;1999.90;999.90;;;8.50;99.90;;;;;;6284315;22;20012;-75
2023/12/26 18:08:28;;;;;;;1999.90;999.90;;;8.50;99.90;;;;;;6256966;22;20012;-76
2023/12/26 18:10:54;;;;;;;1999.90;999.90;;;8.50;99.90;;;;;;6284287;22;20111;-77
2023/12/26 18:13:19;;;;;;;1999.90;999.90;;;8.50;99.90;;;;;;6284020;22;20010;-76
2023/12/26 18:15:45;;;;;;;1999.90;999.90;;;8.50;99.90;;;;;;6284288;22;20379;-76
2023/12/26 18:18:10;;;;;;;1999.90;999.90;;;8.50;99.90;;;;;;6256840;22;20019;-76
2023/12/26 18:20:36;;;;;;;1999.90;999.90;;;8.50;99.90;;;;;;6284262;22;20008;-76
2023/12/26 18:23:01;;;;;;;1999.90;999.90;;;8.50;99.90;;;;;;6283994;22;20380;-76
2023/12/26 18:25:27;;;;;;;1999.90;999.90;;;8.50;99.90;;;;;;6284250;22;20455;-76
2023/12/26 18:27:52;;;;;;;1999.90;999.90;;;8.50;99.90;;;;;;6284208;22;20009;-76
2023/12/26 18:30:18;;;;;;;1999.90;999.90;;;8.50;99.90;;;;;;6284129;22;20008;-76
2023/12/26 18:32:43;;;;;;;1999.90;999.90;;;8.50;99.90;;;;;;6283960;22;20361;-76
2023/12/26 18:35:11;;;;;;;1999.90;999.90;;;8.50;99.90;;;;;;6284212;22;20083;-76
2023/12/26 18:37:37;;;;;;;1999.90;999.90;;;8.50;99.90;;;;;;6284064;22;20008;-76
2023/12/26 18:40:02;;;;;;;1999.90;999.90;;;8.50;99.90;;;;;;6284721;22;20012;-76
2023/12/26 18:42:28;;;;;;;1999.90;999.90;;;8.50;99.90;;;;;;6285886;22;20001;-76
2023/12/26 18:44:56;;;;;;;1999.90;999.90;;;8.60;99.90;;;;;;6286579;22;20012;-76
2023/12/26 18:47:21;;;;;;;1999.90;999.90;;;8.50;99.90;;;;;;6287915;22;20028;-76
2023/12/26 18:49:47;;;;;;;1999.90;999.90;;;8.40;99.90;;;;;;6286456;22;20058;-76
2023/12/26 18:52:13;;;;;;;1999.90;999.90;;;8.30;99.90;;;;;;6287074;22;20523;-77
2023/12/26 18:54:40;;;;;;;1999.90;999.90;;;8.20;99.90;;;;;;6302938;22;20051;-76
2023/12/26 18:57:05;;;;;;;1999.90;999.90;;;8.10;99.90;;;;;;6291478;22;20029;-76
2023/12/26 18:59:33;;;;;;;1999.90;999.90;;;8.10;99.90;;;;;;6286545;22;20032;-77
2023/12/26 19:02:00;;;;;;;1999.90;999.90;;;8.00;99.90;;;;;;6286444;22;20004;-77
2023/12/26 19:04:26;;;;;;;1999.90;999.90;;;7.90;99.90;;;;;;6258293;22;20039;-76
2023/12/26 19:06:52;;;;;;;1999.90;999.90;;;7.90;99.90;;;;;;6285942;22;20020;-76
2023/12/26 19:09:17;;;;;;;1999.90;999.90;;;7.80;99.90;;;;;;6287634;22;20436;-78
2023/12/26 19:11:43;;;;;;;1999.90;999.90;;;7.70;99.90;;;;;;6287416;22;20012;-75
2023/12/26 19:14:08;;;;;;;1999.90;999.90;;;7.70;99.90;;;;;;6286475;22;20008;-76
2023/12/26 19:16:34;;;;;;;1999.90;999.90;;;7.70;99.90;;;;;;6260336;22;20111;-76
2023/12/26 19:19:07;;;;;;;1999.90;999.90;;;7.50;99.90;;;;;;6286971;22;20004;-76
2023/12/26 19:21:33;;;;;;;1999.90;999.90;;;7.50;99.90;;;;;;6287303;22;20020;-77
2023/12/26 19:23:58;;;;;;;1999.90;999.90;;;7.50;99.90;;;;;;6259687;22;20011;-76
2023/12/26 19:26:24;;;;;;;1999.90;999.90;;;7.40;99.90;;;;;;6288632;22;20016;-76
2023/12/26 19:28:49;;;;;;;1999.90;999.90;;;7.40;99.90;;;;;;6257871;22;20001;-76
2023/12/26 19:31:16;;;;;;;1999.90;999.90;;;7.30;99.90;;;;;;6259013;22;20078;-76
2023/12/26 19:33:41;;;;;;;1999.90;999.90;;;7.20;99.90;;;;;;6287119;22;20011;-77
2023/12/26 19:36:07;;;;;;;1999.90;999.90;;;7.10;99.90;;;;;;6286107;22;20016;-78
2023/12/26 19:38:36;;;;;;;1999.90;999.90;;;7.10;99.90;;;;;;6286994;22;20003;-77
2023/12/26 19:41:02;;;;;;;1999.90;999.90;;;7.10;99.90;;;;;;6288528;22;20012;-77
2023/12/26 19:43:28;;;;;;;1999.90;999.90;;;7.20;99.90;;;;;;6287124;22;19996;-76
2023/12/26 19:45:54;;;;;;;1999.90;999.90;;;7.20;99.90;;;;;;6287516;22;20030;-76
2023/12/26 19:48:19;;;;;;;1999.90;999.90;;;7.20;99.90;;;;;;6259951;22;20074;-76
2023/12/26 19:50:45;;;;;;;1999.90;999.90;;;7.10;99.90;;;;;;6285629;22;20444;-75
2023/12/26 19:53:10;;;;;;;1999.90;999.90;;;7.00;99.90;;;;;;6285133;22;20440;-76
2023/12/26 19:55:36;;;;;;;1999.90;999.90;;;7.00;99.90;;;;;;6287299;22;20008;-76
2023/12/26 19:58:01;;;;;;;1999.90;999.90;;;7.00;99.90;;;;;;6260030;22;20044;-76
2023/12/26 20:00:27;;;;;;;1999.90;999.90;;;6.90;99.90;;;;;;6286008;22;20004;-76
2023/12/26 20:02:52;;;;;;;1999.90;999.90;;;7.00;99.90;;;;;;6285142;22;20387;-76
2023/12/26 20:05:18;;;;;;;1999.90;999.90;;;7.00;99.90;;;;;;6283812;22;20012;-76
2023/12/26 20:07:44;;;;;;;1999.90;999.90;;;6.90;99.90;;;;;;6284216;22;20022;-76
2023/12/26 20:10:09;;;;;;;1999.90;999.90;;;6.90;99.90;;;;;;6259899;22;20399;-76
2023/12/26 20:12:35;;;;;;;1999.90;999.90;;;6.90;99.90;;;;;;6286854;22;20004;-76
2023/12/26 20:15:00;;;;;;;1999.90;999.90;;;6.80;99.90;;;;;;6258478;22;20012;-76
2023/12/26 20:17:26;;;;;;;1999.90;999.90;;;6.80;99.90;;;;;;6287194;22;20073;-76
2023/12/26 20:19:52;;;;;;;1999.90;999.90;;;6.70;99.90;;;;;;6259159;22;20008;-76
2023/12/26 20:22:17;;;;;;;1999.90;999.90;;;6.60;99.90;;;;;;6287385;22;20014;-76
2023/12/26 20:24:43;;;;;;;1999.90;999.90;;;6.60;99.90;;;;;;6287027;22;20030;-76
2023/12/26 20:27:09;;;;;;;1999.90;999.90;;;6.60;99.90;;;;;;6287805;22;20451;-76
2023/12/26 20:29:34;;;;;;;1999.90;999.90;;;6.40;99.90;;;;;;6287912;22;20009;-77
2023/12/26 20:32:00;;;;;;;1999.90;999.90;;;6.30;99.90;;;;;;6258883;22;20127;-76